sensor_id;sensor_type;location;lat;lon;timestamp;pressure;altitude;pressure_sealevel;temperature;humidity
38197;BME280;26543;51.976;4.616;2023-05-01T00:02:07;52668.84;;;-140.72;100.00
38197;BME280;26543;51.976;4.616;2023-05-01T00:04:32;52658.72;;;-140.72;100.00
38197;BME280;26543;51.976;4.616;2023-05-01T00:06:58;52689.16;;;-140.72;100.00
38197;BME280;26543;51.976;4.616;2023-05-01T00:09:25;52672.91;;;-140.72;100.00
38197;BME280;26543;51.976;4.616;2023-05-01T00:11:51;52672.91;;;-140.72;100.00
38197;BME280;26543;51.976;4.616;2023-05-01T00:14:16;52674.94;;;-140.72;100.00
38197;BME280;26543;51.976;4.616;2023-05-01T00:16:41;52654.66;;;-140.72;100.00
38197;BME280;26543;51.976;4.616;2023-05-01T00:19:07;52660.75;;;-140.72;100.00
38197;BME280;26543;51.976;4.616;2023-05-01T00:21:32;52685.09;;;-140.72;100.00
38197;BME280;26543;51.976;4.616;2023-05-01T00:23:57;52711.47;;;-140.72;100.00
38197;BME280;26543;51.976;4.616;2023-05-01T00:26:22;52681.03;;;-140.72;100.00
38197;BME280;26543;51.976;4.616;2023-05-01T00:28:51;52687.13;;;-140.72;100.00
38197;BME280;26543;51.976;4.616;2023-05-01T00:31:16;52691.19;;;-140.72;100.00
38197;BME280;26543;51.976;4.616;2023-05-01T00:33:42;52683.06;;;-140.72;100.00
38197;BME280;26543;51.976;4.616;2023-05-01T00:36:07;52687.13;;;-140.72;100.00
38197;BME280;26543;51.976;4.616;2023-05-01T00:38:33;52695.25;;;-140.72;100.00
38197;BME280;26543;51.976;4.616;2023-05-01T00:40:59;52719.59;;;-140.72;100.00
38197;BME280;26543;51.976;4.616;2023-05-01T00:43:24;52670.88;;;-140.72;100.00
38197;BME280;26543;51.976;4.616;2023-05-01T00:45:49;52681.03;;;-140.72;100.00
38197;BME280;26543;51.976;4.616;2023-05-01T00:48:15;52715.53;;;-140.72;100.00
38197;BME280;26543;51.976;4.616;2023-05-01T00:50:40;52654.66;;;-140.72;100.00
38197;BME280;26543;51.976;4.616;2023-05-01T00:53:07;52687.13;;;-140.72;100.00
38197;BME280;26543;51.976;4.616;2023-05-01T00:55:32;52695.25;;;-140.72;100.00
38197;BME280;26543;51.976;4.616;2023-05-01T00:57:57;52666.84;;;-140.72;100.00
38197;BME280;26543;51.976;4.616;2023-05-01T01:00:23;52691.19;;;-140.72;100.00
38197;BME280;26543;51.976;4.616;2023-05-01T01:02:49;52654.66;;;-140.72;100.00
38197;BME280;26543;51.976;4.616;2023-05-01T01:05:16;52683.06;;;-140.72;100.00
38197;BME280;26543;51.976;4.616;2023-05-01T01:07:50;52693.22;;;-140.72;100.00
38197;BME280;26543;51.976;4.616;2023-05-01T01:12:57;52670.88;;;-140.72;100.00
38197;BME280;26543;51.976;4.616;2023-05-01T01:15:31;52685.09;;;-140.72;100.00
38197;BME280;26543;51.976;4.616;2023-05-01T01:23:12;52668.84;;;-140.72;100.00
38197;BME280;26543;51.976;4.616;2023-05-01T01:26:02;52685.09;;;-140.72;100.00
38197;BME280;26543;51.976;4.616;2023-05-01T01:31:10;52666.84;;;-140.72;100.00
38197;BME280;26543;51.976;4.616;2023-05-01T01:36:16;52672.91;;;-140.72;100.00
38197;BME280;26543;51.976;4.616;2023-05-01T01:38:44;52691.19;;;-140.72;100.00
38197;BME280;26543;51.976;4.616;2023-05-01T01:41:16;52672.91;;;-140.72;100.00
38197;BME280;26543;51.976;4.616;2023-05-01T01:43:44;52679.00;;;-140.72;100.00
38197;BME280;26543;51.976;4.616;2023-05-01T01:46:10;52652.63;;;-140.72;100.00
38197;BME280;26543;51.976;4.616;2023-05-01T01:48:37;52674.94;;;-140.72;100.00
38197;BME280;26543;51.976;4.616;2023-05-01T01:51:07;52648.56;;;-140.72;100.00
38197;BME280;26543;51.976;4.616;2023-05-01T01:53:34;52646.53;;;-140.72;100.00
38197;BME280;26543;51.976;4.616;2023-05-01T01:56:01;52630.31;;;-140.72;100.00
38197;BME280;26543;51.976;4.616;2023-05-01T01:58:28;52634.38;;;-140.72;100.00
38197;BME280;26543;51.976;4.616;2023-05-01T02:00:54;52691.19;;;-140.72;100.00
38197;BME280;26543;51.976;4.616;2023-05-01T02:03:21;52711.47;;;-140.72;100.00
38197;BME280;26543;51.976;4.616;2023-05-01T02:05:48;52636.38;;;-140.72;100.00
38197;BME280;26543;51.976;4.616;2023-05-01T02:08:14;52685.09;;;-140.72;100.00
38197;BME280;26543;51.976;4.616;2023-05-01T02:10:40;52666.84;;;-140.72;100.00
38197;BME280;26543;51.976;4.616;2023-05-01T02:13:07;52679.00;;;-140.72;100.00
38197;BME280;26543;51.976;4.616;2023-05-01T02:15:33;52670.88;;;-140.72;100.00
38197;BME280;26543;51.976;4.616;2023-05-01T02:17:59;52679.00;;;-140.72;100.00
38197;BME280;26543;51.976;4.616;2023-05-01T02:20:26;52689.16;;;-140.72;100.00
38197;BME280;26543;51.976;4.616;2023-05-01T02:22:52;52658.72;;;-140.72;100.00
38197;BME280;26543;51.976;4.616;2023-05-01T02:25:17;52685.09;;;-140.72;100.00
38197;BME280;26543;51.976;4.616;2023-05-01T02:27:46;52634.38;;;-140.72;100.00
38197;BME280;26543;51.976;4.616;2023-05-01T02:30:14;52695.25;;;-140.72;100.00
38197;BME280;26543;51.976;4.616;2023-05-01T02:32:39;52674.94;;;-140.72;100.00
38197;BME280;26543;51.976;4.616;2023-05-01T02:35:07;52683.06;;;-140.72;100.00
38197;BME280;26543;51.976;4.616;2023-05-01T02:37:32;52687.13;;;-140.72;100.00
38197;BME280;26543;51.976;4.616;2023-05-01T02:39:58;52699.31;;;-140.72;100.00
38197;BME280;26543;51.976;4.616;2023-05-01T02:42:23;52676.97;;;-140.72;100.00
38197;BME280;26543;51.976;4.616;2023-05-01T02:47:16;52672.91;;;-140.72;100.00
38197;BME280;26543;51.976;4.616;2023-05-01T02:49:44;52691.19;;;-140.72;100.00
38197;BME280;26543;51.976;4.616;2023-05-01T02:52:11;52713.50;;;-140.72;100.00
38197;BME280;26543;51.976;4.616;2023-05-01T02:54:36;52683.06;;;-140.72;100.00
38197;BME280;26543;51.976;4.616;2023-05-01T02:57:03;52679.00;;;-140.72;100.00
38197;BME280;26543;51.976;4.616;2023-05-01T02:59:29;52654.66;;;-140.72;100.00
38197;BME280;26543;51.976;4.616;2023-05-01T03:01:54;52683.06;;;-140.72;100.00
38197;BME280;26543;51.976;4.616;2023-05-01T03:04:20;52713.50;;;-140.72;100.00
38197;BME280;26543;51.976;4.616;2023-05-01T03:06:45;52679.00;;;-140.72;100.00
38197;BME280;26543;51.976;4.616;2023-05-01T03:09:10;52695.25;;;-140.72;100.00
38197;BME280;26543;51.976;4.616;2023-05-01T03:11:36;52674.94;;;-140.72;100.00
38197;BME280;26543;51.976;4.616;2023-05-01T03:14:01;52727.72;;;-140.72;100.00
38197;BME280;26543;51.976;4.616;2023-05-01T03:16:26;52679.00;;;-140.72;100.00
38197;BME280;26543;51.976;4.616;2023-05-01T03:18:51;52652.63;;;-140.72;100.00
38197;BME280;26543;51.976;4.616;2023-05-01T03:21:17;52670.88;;;-140.72;100.00
38197;BME280;26543;51.976;4.616;2023-05-01T03:23:42;52691.19;;;-140.72;100.00
38197;BME280;26543;51.976;4.616;2023-05-01T03:26:07;52723.66;;;-140.72;100.00
38197;BME280;26543;51.976;4.616;2023-05-01T03:28:32;52687.13;;;-140.72;100.00
38197;BME280;26543;51.976;4.616;2023-05-01T03:30:57;52656.69;;;-140.72;100.00
38197;BME280;26543;51.976;4.616;2023-05-01T03:33:23;52691.19;;;-140.72;100.00
38197;BME280;26543;51.976;4.616;2023-05-01T03:35:51;52695.25;;;-140.72;100.00
38197;BME280;26543;51.976;4.616;2023-05-01T03:38:22;52743.94;;;-140.72;100.00
38197;BME280;26543;51.976;4.616;2023-05-01T03:40:48;52693.22;;;-140.72;100.00
38197;BME280;26543;51.976;4.616;2023-05-01T03:43:13;52703.34;;;-140.72;100.00
38197;BME280;26543;51.976;4.616;2023-05-01T03:45:38;52683.06;;;-140.72;100.00
38197;BME280;26543;51.976;4.616;2023-05-01T03:48:03;52674.94;;;-140.72;100.00
38197;BME280;26543;51.976;4.616;2023-05-01T03:50:29;52687.13;;;-140.72;100.00
38197;BME280;26543;51.976;4.616;2023-05-01T03:52:54;52683.06;;;-140.72;100.00
38197;BME280;26543;51.976;4.616;2023-05-01T03:55:19;52699.31;;;-140.72;100.00
38197;BME280;26543;51.976;4.616;2023-05-01T03:57:44;52674.94;;;-140.72;100.00
38197;BME280;26543;51.976;4.616;2023-05-01T04:00:11;52685.09;;;-140.72;100.00
38197;BME280;26543;51.976;4.616;2023-05-01T04:02:38;52681.03;;;-140.72;100.00
38197;BME280;26543;51.976;4.616;2023-05-01T04:05:04;52707.41;;;-140.72;100.00
38197;BME280;26543;51.976;4.616;2023-05-01T04:07:29;52711.47;;;-140.72;100.00
38197;BME280;26543;51.976;4.616;2023-05-01T04:09:54;52687.13;;;-140.72;100.00
38197;BME280;26543;51.976;4.616;2023-05-01T04:12:20;52685.09;;;-140.72;100.00
38197;BME280;26543;51.976;4.616;2023-05-01T04:14:45;52707.41;;;-140.72;100.00
38197;BME280;26543;51.976;4.616;2023-05-01T04:17:10;52725.69;;;-140.72;100.00
38197;BME280;26543;51.976;4.616;2023-05-01T04:19:36;52721.63;;;-140.72;100.00
38197;BME280;26543;51.976;4.616;2023-05-01T04:22:01;52731.75;;;-140.72;100.00
38197;BME280;26543;51.976;4.616;2023-05-01T04:24:27;52693.22;;;-140.72;100.00
38197;BME280;26543;51.976;4.616;2023-05-01T04:26:52;52687.13;;;-140.72;100.00
38197;BME280;26543;51.976;4.616;2023-05-01T04:29:18;52699.31;;;-140.72;100.00
38197;BME280;26543;51.976;4.616;2023-05-01T04:31:43;52707.41;;;-140.72;100.00
38197;BME280;26543;51.976;4.616;2023-05-01T04:34:08;52707.41;;;-140.72;100.00
38197;BME280;26543;51.976;4.616;2023-05-01T04:36:33;52707.41;;;-140.72;100.00
38197;BME280;26543;51.976;4.616;2023-05-01T04:38:59;52658.72;;;-140.72;100.00
38197;BME280;26543;51.976;4.616;2023-05-01T04:41:32;52703.34;;;-140.72;100.00
38197;BME280;26543;51.976;4.616;2023-05-01T04:43:58;52689.16;;;-140.72;100.00
38197;BME280;26543;51.976;4.616;2023-05-01T04:46:23;52689.16;;;-140.72;100.00
38197;BME280;26543;51.976;4.616;2023-05-01T04:48:48;52695.25;;;-140.72;100.00
38197;BME280;26543;51.976;4.616;2023-05-01T04:51:14;52691.19;;;-140.72;100.00
38197;BME280;26543;51.976;4.616;2023-05-01T04:53:39;52687.13;;;-140.72;100.00
38197;BME280;26543;51.976;4.616;2023-05-01T04:56:05;52703.34;;;-140.72;100.00
38197;BME280;26543;51.976;4.616;2023-05-01T04:58:31;52670.88;;;-140.72;100.00
38197;BME280;26543;51.976;4.616;2023-05-01T05:00:56;52670.88;;;-140.72;100.00
38197;BME280;26543;51.976;4.616;2023-05-01T05:03:21;52687.13;;;-140.72;100.00
38197;BME280;26543;51.976;4.616;2023-05-01T05:05:47;52691.19;;;-140.72;100.00
38197;BME280;26543;51.976;4.616;2023-05-01T05:08:12;52703.34;;;-140.72;100.00
38197;BME280;26543;51.976;4.616;2023-05-01T05:10:37;52693.22;;;-140.72;100.00
38197;BME280;26543;51.976;4.616;2023-05-01T05:13:02;52670.88;;;-140.72;100.00
38197;BME280;26543;51.976;4.616;2023-05-01T05:15:28;52656.69;;;-140.72;100.00
38197;BME280;26543;51.976;4.616;2023-05-01T05:17:53;52658.72;;;-140.72;100.00
38197;BME280;26543;51.976;4.616;2023-05-01T05:20:18;52662.78;;;-140.72;100.00
38197;BME280;26543;51.976;4.616;2023-05-01T05:22:43;52683.06;;;-140.72;100.00
38197;BME280;26543;51.976;4.616;2023-05-01T05:25:08;52670.88;;;-140.72;100.00
38197;BME280;26543;51.976;4.616;2023-05-01T05:27:34;52670.88;;;-140.72;100.00
38197;BME280;26543;51.976;4.616;2023-05-01T05:30:05;52707.41;;;-140.72;100.00
38197;BME280;26543;51.976;4.616;2023-05-01T05:32:31;52693.22;;;-140.72;100.00
38197;BME280;26543;51.976;4.616;2023-05-01T05:34:56;52666.84;;;-140.72;100.00
38197;BME280;26543;51.976;4.616;2023-05-01T05:37:22;52650.59;;;-140.72;100.00
38197;BME280;26543;51.976;4.616;2023-05-01T05:39:49;52670.88;;;-140.72;100.00
38197;BME280;26543;51.976;4.616;2023-05-01T05:42:14;52670.88;;;-140.72;100.00
38197;BME280;26543;51.976;4.616;2023-05-01T05:44:39;52638.41;;;-140.72;100.00
38197;BME280;26543;51.976;4.616;2023-05-01T05:47:05;52668.84;;;-140.72;100.00
38197;BME280;26543;51.976;4.616;2023-05-01T05:49:30;52670.88;;;-140.72;100.00
38197;BME280;26543;51.976;4.616;2023-05-01T05:51:55;52650.59;;;-140.72;100.00
38197;BME280;26543;51.976;4.616;2023-05-01T05:54:20;52662.78;;;-140.72;100.00
38197;BME280;26543;51.976;4.616;2023-05-01T05:56:46;52656.69;;;-140.72;100.00
38197;BME280;26543;51.976;4.616;2023-05-01T05:59:11;52618.13;;;-140.72;100.00
38197;BME280;26543;51.976;4.616;2023-05-01T06:01:36;52691.19;;;-140.72;100.00
38197;BME280;26543;51.976;4.616;2023-05-01T06:04:04;52630.31;;;-140.72;100.00
38197;BME280;26543;51.976;4.616;2023-05-01T06:06:29;52691.19;;;-140.72;100.00
38197;BME280;26543;51.976;4.616;2023-05-01T06:08:55;52679.00;;;-140.72;100.00
38197;BME280;26543;51.976;4.616;2023-05-01T06:11:20;52646.53;;;-140.72;100.00
38197;BME280;26543;51.976;4.616;2023-05-01T06:13:46;52638.41;;;-140.72;100.00
38197;BME280;26543;51.976;4.616;2023-05-01T06:16:11;52644.50;;;-140.72;100.00
38197;BME280;26543;51.976;4.616;2023-05-01T06:18:36;52646.53;;;-140.72;94.99
38197;BME280;26543;51.976;4.616;2023-05-01T06:21:02;52624.22;;;-140.72;57.92
38197;BME280;26543;51.976;4.616;2023-05-01T06:23:27;52638.41;;;-140.72;47.92
38197;BME280;26543;51.976;4.616;2023-05-01T06:25:52;52624.22;;;-140.72;39.43
38197;BME280;26543;51.976;4.616;2023-05-01T06:28:17;52589.72;;;-140.72;31.00
38197;BME280;26543;51.976;4.616;2023-05-01T06:30:43;52658.72;;;-140.72;16.79
38197;BME280;26543;51.976;4.616;2023-05-01T06:33:08;52581.59;;;-140.72;14.39
38197;BME280;26543;51.976;4.616;2023-05-01T06:35:35;52595.81;;;-140.72;11.25
38197;BME280;26543;51.976;4.616;2023-05-01T06:38:00;52660.75;;;-140.72;0.00
38197;BME280;26543;51.976;4.616;2023-05-01T06:40:26;52610.00;;;-140.72;0.00
38197;BME280;26543;51.976;4.616;2023-05-01T06:42:52;52585.66;;;-140.72;0.00
38197;BME280;26543;51.976;4.616;2023-05-01T06:45:17;52607.97;;;-140.72;0.00
38197;BME280;26543;51.976;4.616;2023-05-01T06:47:42;52597.84;;;-140.72;0.00
38197;BME280;26543;51.976;4.616;2023-05-01T06:50:07;52616.09;;;-140.72;0.00
38197;BME280;26543;51.976;4.616;2023-05-01T06:52:33;52603.94;;;-140.72;0.00
38197;BME280;26543;51.976;4.616;2023-05-01T06:54:58;52607.97;;;-140.72;0.00
38197;BME280;26543;51.976;4.616;2023-05-01T06:57:23;52587.69;;;-140.72;0.00
38197;BME280;26543;51.976;4.616;2023-05-01T06:59:49;52622.19;;;-140.72;0.00
38197;BME280;26543;51.976;4.616;2023-05-01T07:02:14;52587.69;;;-140.72;0.00
38197;BME280;26543;51.976;4.616;2023-05-01T07:04:39;52569.44;;;-140.72;0.00
38197;BME280;26543;51.976;4.616;2023-05-01T07:07:05;52593.78;;;-140.72;0.00
38197;BME280;26543;51.976;4.616;2023-05-01T07:09:31;52573.50;;;-140.72;0.00
38197;BME280;26543;51.976;4.616;2023-05-01T07:11:57;52589.72;;;-140.72;0.00
38197;BME280;26543;51.976;4.616;2023-05-01T07:17:34;52632.34;;;-140.72;0.00
38197;BME280;26543;51.976;4.616;2023-05-01T07:20:18;52577.53;;;-140.72;0.00
38197;BME280;26543;51.976;4.616;2023-05-01T07:22:43;52567.41;;;-140.72;0.00
38197;BME280;26543;51.976;4.616;2023-05-01T07:25:08;52559.28;;;-140.72;0.00
38197;BME280;26543;51.976;4.616;2023-05-01T07:27:33;52577.53;;;-140.72;0.00
38197;BME280;26543;51.976;4.616;2023-05-01T07:29:59;52573.50;;;-140.72;0.00
38197;BME280;26543;51.976;4.616;2023-05-01T07:32:24;52587.69;;;-140.72;0.00
38197;BME280;26543;51.976;4.616;2023-05-01T07:34:50;52607.97;;;-140.72;0.00
38197;BME280;26543;51.976;4.616;2023-05-01T07:37:15;52587.69;;;-140.72;0.00
38197;BME280;26543;51.976;4.616;2023-05-01T07:39:40;52573.50;;;-140.72;0.00
38197;BME280;26543;51.976;4.616;2023-05-01T07:42:05;52571.47;;;-140.72;0.00
38197;BME280;26543;51.976;4.616;2023-05-01T07:44:31;52565.38;;;-140.72;0.00
38197;BME280;26543;51.976;4.616;2023-05-01T07:47:01;52536.97;;;-140.72;0.00
38197;BME280;26543;51.976;4.616;2023-05-01T07:49:26;52585.66;;;-140.72;0.00
38197;BME280;26543;51.976;4.616;2023-05-01T07:51:53;52522.75;;;-140.72;0.00
38197;BME280;26543;51.976;4.616;2023-05-01T07:54:19;52532.91;;;-140.72;0.00
38197;BME280;26543;51.976;4.616;2023-05-01T07:56:46;52571.47;;;-140.72;0.00
38197;BME280;26543;51.976;4.616;2023-05-01T07:59:11;52500.44;;;-140.72;0.00
38197;BME280;26543;51.976;4.616;2023-05-01T08:01:36;52520.72;;;-140.72;0.00
38197;BME280;26543;51.976;4.616;2023-05-01T08:04:01;52512.59;;;-140.72;0.00
38197;BME280;26543;51.976;4.616;2023-05-01T08:06:27;52508.56;;;-140.72;0.00
38197;BME280;26543;51.976;4.616;2023-05-01T08:08:52;52516.66;;;-140.72;0.00
38197;BME280;26543;51.976;4.616;2023-05-01T08:11:17;52506.53;;;-140.72;0.00
38197;BME280;26543;51.976;4.616;2023-05-01T08:13:42;52488.25;;;-140.72;0.00
38197;BME280;26543;51.976;4.616;2023-05-01T08:16:07;52524.78;;;-140.72;0.00
38197;BME280;26543;51.976;4.616;2023-05-01T08:18:33;52536.97;;;-140.72;0.00
38197;BME280;26543;51.976;4.616;2023-05-01T08:20:58;52526.81;;;-140.72;0.00
38197;BME280;26543;51.976;4.616;2023-05-01T08:23:23;52536.97;;;-140.72;0.00
38197;BME280;26543;51.976;4.616;2023-05-01T08:25:50;52575.50;;;-140.72;0.00
38197;BME280;26543;51.976;4.616;2023-05-01T08:28:16;52547.09;;;-140.72;0.00
38197;BME280;26543;51.976;4.616;2023-05-01T08:30:41;52557.25;;;-140.72;0.00
38197;BME280;26543;51.976;4.616;2023-05-01T08:33:06;52541.03;;;-140.72;0.00
38197;BME280;26543;51.976;4.616;2023-05-01T08:35:32;52565.38;;;-140.72;0.00
38197;BME280;26543;51.976;4.616;2023-05-01T08:37:57;52543.03;;;-140.72;0.00
38197;BME280;26543;51.976;4.616;2023-05-01T08:40:22;52573.50;;;-140.72;0.00
38197;BME280;26543;51.976;4.616;2023-05-01T08:42:49;52536.97;;;-140.72;0.00
38197;BME280;26543;51.976;4.616;2023-05-01T08:45:15;52530.88;;;-140.72;0.00
38197;BME280;26543;51.976;4.616;2023-05-01T08:47:42;52547.09;;;-140.72;0.00
38197;BME280;26543;51.976;4.616;2023-05-01T08:50:09;52553.19;;;-140.72;0.00
38197;BME280;26543;51.976;4.616;2023-05-01T08:52:39;52567.41;;;-140.72;0.00
38197;BME280;26543;51.976;4.616;2023-05-01T08:55:06;52553.19;;;-140.72;0.00
38197;BME280;26543;51.976;4.616;2023-05-01T08:57:32;52526.81;;;-140.72;0.00
38197;BME280;26543;51.976;4.616;2023-05-01T08:59:58;52549.13;;;-140.72;0.00
38197;BME280;26543;51.976;4.616;2023-05-01T09:02:26;52571.47;;;-140.72;0.00
38197;BME280;26543;51.976;4.616;2023-05-01T09:04:51;52585.66;;;-140.72;0.00
38197;BME280;26543;51.976;4.616;2023-05-01T09:07:18;52557.25;;;-140.72;0.00
38197;BME280;26543;51.976;4.616;2023-05-01T09:09:43;52514.63;;;-140.72;0.00
38197;BME280;26543;51.976;4.616;2023-05-01T09:12:22;52539.00;;;-140.72;0.00
38197;BME280;26543;51.976;4.616;2023-05-01T09:14:52;52524.78;;;-140.72;0.00
38197;BME280;26543;51.976;4.616;2023-05-01T09:17:18;52496.38;;;-140.72;0.00
38197;BME280;26543;51.976;4.616;2023-05-01T09:19:44;52486.22;;;-140.72;0.00
38197;BME280;26543;51.976;4.616;2023-05-01T09:22:10;52508.56;;;-140.72;0.00
38197;BME280;26543;51.976;4.616;2023-05-01T09:24:35;52561.31;;;-140.72;0.00
38197;BME280;26543;51.976;4.616;2023-05-01T09:27:01;52528.84;;;-140.72;0.00
38197;BME280;26543;51.976;4.616;2023-05-01T09:32:24;52569.44;;;-140.72;0.00
38197;BME280;26543;51.976;4.616;2023-05-01T09:34:51;52545.06;;;-140.72;0.00
38197;BME280;26543;51.976;4.616;2023-05-01T09:37:30;52565.38;;;-140.72;0.00
38197;BME280;26543;51.976;4.616;2023-05-01T09:42:31;52498.41;;;-140.72;0.00
38197;BME280;26543;51.976;4.616;2023-05-01T09:44:59;52555.22;;;-140.72;0.00
38197;BME280;26543;51.976;4.616;2023-05-01T09:47:25;52536.97;;;-140.72;0.00
38197;BME280;26543;51.976;4.616;2023-05-01T09:49:53;52541.03;;;-140.72;0.00
38197;BME280;26543;51.976;4.616;2023-05-01T09:52:19;52545.06;;;-140.72;0.00
38197;BME280;26543;51.976;4.616;2023-05-01T09:54:44;52583.63;;;-140.72;0.00
38197;BME280;26543;51.976;4.616;2023-05-01T09:57:10;52567.41;;;-140.72;0.00
38197;BME280;26543;51.976;4.616;2023-05-01T09:59:35;52539.00;;;-140.72;0.00
38197;BME280;26543;51.976;4.616;2023-05-01T10:02:01;52581.59;;;-140.72;0.00
38197;BME280;26543;51.976;4.616;2023-05-01T10:04:32;52585.66;;;-140.72;57.16
38197;BME280;26543;51.976;4.616;2023-05-01T10:07:18;52614.06;;;-140.72;100.00
38197;BME280;26543;51.976;4.616;2023-05-01T10:09:43;52624.22;;;-140.72;100.00
38197;BME280;26543;51.976;4.616;2023-05-01T10:12:08;52622.19;;;-140.72;100.00
38197;BME280;26543;51.976;4.616;2023-05-01T10:14:34;52597.84;;;-140.72;100.00
38197;BME280;26543;51.976;4.616;2023-05-01T10:17:16;52610.00;;;-140.72;100.00
38197;BME280;26543;51.976;4.616;2023-05-01T10:19:43;52674.94;;;-140.72;100.00
38197;BME280;26543;51.976;4.616;2023-05-01T10:22:08;52642.47;;;-140.72;100.00
38197;BME280;26543;51.976;4.616;2023-05-01T10:24:35;52640.44;;;-140.72;100.00
38197;BME280;26543;51.976;4.616;2023-05-01T10:27:00;52601.91;;;-140.72;100.00
38197;BME280;26543;51.976;4.616;2023-05-01T10:29:28;52630.31;;;-140.72;100.00
38197;BME280;26543;51.976;4.616;2023-05-01T10:31:55;52630.31;;;-140.72;100.00
38197;BME280;26543;51.976;4.616;2023-05-01T10:34:29;52636.38;;;-140.72;100.00
38197;BME280;26543;51.976;4.616;2023-05-01T10:36:59;52626.25;;;-140.72;100.00
38197;BME280;26543;51.976;4.616;2023-05-01T10:39:33;52622.19;;;-140.72;100.00
38197;BME280;26543;51.976;4.616;2023-05-01T10:42:08;52654.66;;;-140.72;100.00
38197;BME280;26543;51.976;4.616;2023-05-01T10:44:41;52634.38;;;-140.72;100.00
38197;BME280;26543;51.976;4.616;2023-05-01T10:50:05;52630.31;;;-140.72;100.00
38197;BME280;26543;51.976;4.616;2023-05-01T10:55:36;52648.56;;;-140.72;100.00
38197;BME280;26543;51.976;4.616;2023-05-01T10:58:01;52628.28;;;-140.72;100.00
38197;BME280;26543;51.976;4.616;2023-05-01T11:00:27;52644.50;;;-140.72;100.00
38197;BME280;26543;51.976;4.616;2023-05-01T11:08:34;52646.53;;;-140.72;100.00
38197;BME280;26543;51.976;4.616;2023-05-01T11:22:10;52630.31;;;-140.72;100.00
38197;BME280;26543;51.976;4.616;2023-05-01T11:24:36;52616.09;;;-140.72;100.00
38197;BME280;26543;51.976;4.616;2023-05-01T11:27:02;52650.59;;;-140.72;100.00
38197;BME280;26543;51.976;4.616;2023-05-01T11:29:31;52638.41;;;-140.72;100.00
38197;BME280;26543;51.976;4.616;2023-05-01T11:31:58;52595.81;;;-140.72;100.00
38197;BME280;26543;51.976;4.616;2023-05-01T11:34:23;52603.94;;;-140.72;100.00
38197;BME280;26543;51.976;4.616;2023-05-01T11:36:49;52581.59;;;-140.72;100.00
38197;BME280;26543;51.976;4.616;2023-05-01T11:39:15;52589.72;;;-140.72;100.00
38197;BME280;26543;51.976;4.616;2023-05-01T11:41:41;52567.41;;;-140.72;100.00
38197;BME280;26543;51.976;4.616;2023-05-01T11:44:10;52549.13;;;-140.72;100.00
38197;BME280;26543;51.976;4.616;2023-05-01T11:46:35;52561.31;;;-140.72;100.00
38197;BME280;26543;51.976;4.616;2023-05-01T11:49:10;52559.28;;;-140.72;100.00
38197;BME280;26543;51.976;4.616;2023-05-01T11:51:35;52534.94;;;-140.72;100.00
38197;BME280;26543;51.976;4.616;2023-05-01T11:54:01;52522.75;;;-140.72;100.00
38197;BME280;26543;51.976;4.616;2023-05-01T11:56:29;52478.13;;;-140.72;100.00
38197;BME280;26543;51.976;4.616;2023-05-01T11:58:55;52445.66;;;-140.72;100.00
38197;BME280;26543;51.976;4.616;2023-05-01T12:01:21;52484.19;;;-140.72;37.59
38197;BME280;26543;51.976;4.616;2023-05-01T12:03:56;52504.50;;;-140.72;15.98
38197;BME280;26543;51.976;4.616;2023-05-01T12:06:22;52465.94;;;-140.72;0.00
38197;BME280;26543;51.976;4.616;2023-05-01T12:08:59;52457.81;;;-140.72;0.00
38197;BME280;26543;51.976;4.616;2023-05-01T12:11:25;52431.44;;;-140.72;0.00
38197;BME280;26543;51.976;4.616;2023-05-01T12:13:51;52415.22;;;-140.72;0.00
38197;BME280;26543;51.976;4.616;2023-05-01T12:16:17;52451.72;;;-140.72;0.00
38197;BME280;26543;51.976;4.616;2023-05-01T12:18:42;52409.13;;;-140.72;0.00
38197;BME280;26543;51.976;4.616;2023-05-01T12:21:11;52421.28;;;-140.72;0.00
38197;BME280;26543;51.976;4.616;2023-05-01T12:23:39;52332.03;;;-140.72;0.00
38197;BME280;26543;51.976;4.616;2023-05-01T12:26:17;52244.78;;;-140.72;0.00
38197;BME280;26543;51.976;4.616;2023-05-01T12:28:55;52206.22;;;-140.72;0.00
38197;BME280;26543;51.976;4.616;2023-05-01T12:31:20;52153.47;;;-140.72;0.00
38197;BME280;26543;51.976;4.616;2023-05-01T12:33:53;52155.50;;;-140.72;0.00
38197;BME280;26543;51.976;4.616;2023-05-01T12:36:19;52131.16;;;-140.72;0.00
38197;BME280;26543;51.976;4.616;2023-05-01T12:38:56;52157.53;;;-140.72;0.00
38197;BME280;26543;51.976;4.616;2023-05-01T12:43:56;52271.16;;;-140.72;0.00
38197;BME280;26543;51.976;4.616;2023-05-01T12:46:22;52321.88;;;-140.72;0.00
38197;BME280;26543;51.976;4.616;2023-05-01T12:48:47;52297.53;;;-140.72;0.00
38197;BME280;26543;51.976;4.616;2023-05-01T12:51:17;52321.88;;;-140.72;0.00
38197;BME280;26543;51.976;4.616;2023-05-01T12:53:42;52315.78;;;-140.72;0.00
38197;BME280;26543;51.976;4.616;2023-05-01T12:56:08;52364.47;;;-140.72;0.00
38197;BME280;26543;51.976;4.616;2023-05-01T12:58:36;52394.91;;;-140.72;0.00
38197;BME280;26543;51.976;4.616;2023-05-01T13:04:03;52425.34;;;-140.72;0.00
38197;BME280;26543;51.976;4.616;2023-05-01T13:09:32;52443.63;;;-140.72;0.00
38197;BME280;26543;51.976;4.616;2023-05-01T13:11:57;52411.16;;;-140.72;0.00
38197;BME280;26543;51.976;4.616;2023-05-01T13:14:23;52287.38;;;-140.72;0.00
38197;BME280;26543;51.976;4.616;2023-05-01T13:16:49;52271.16;;;-140.72;0.00
38197;BME280;26543;51.976;4.616;2023-05-01T13:19:25;52244.78;;;-140.72;0.00
38197;BME280;26543;51.976;4.616;2023-05-01T13:21:52;52263.03;;;-140.72;0.00
38197;BME280;26543;51.976;4.616;2023-05-01T13:24:17;52267.09;;;-140.72;0.00
38197;BME280;26543;51.976;4.616;2023-05-01T13:26:43;52317.81;;;-140.72;0.00
38197;BME280;26543;51.976;4.616;2023-05-01T13:29:11;52372.59;;;-140.72;0.00
38197;BME280;26543;51.976;4.616;2023-05-01T13:31:38;52405.06;;;-140.72;0.00